Time;durP1;ratioP1;P1;durP2;ratioP2;P2;SDS_P1;SDS_P2;PMS_P1;PMS_P2;Temp;Humidity;BMP_temperature;BMP_pressure;BME280_temperature;BME280_humidity;BME280_pressure;Samples;Min_cycle;Max_cycle;Signal;HPM_P1;HPM_P2
2022/09/04 00:00:14;;;;;;;7.38;3.13;;;21.50;86.40;;;;;;5014195;28;20025;-63
2022/09/04 00:02:48;;;;;;;5.65;3.10;;;21.50;86.50;;;;;;5030356;28;20037;-63
2022/09/04 00:05:16;;;;;;;5.32;2.85;;;21.40;86.50;;;;;;5030109;28;20021;-64
2022/09/04 00:08:12;;;;;;;2.65;2.45;;;21.40;86.50;;;;;;5039972;28;20029;-62
2022/09/04 00:10:48;;;;;;;3.92;3.28;;;21.40;86.50;;;;;;5032280;28;20052;-64
2022/09/04 00:13:30;;;;;;;4.95;3.58;;;21.40;86.40;;;;;;5042638;28;20068;-62
2022/09/04 00:16:00;;;;;;;5.60;3.03;;;21.40;86.50;;;;;;5024456;28;20025;-63
2022/09/04 00:18:41;;;;;;;3.58;3.03;;;21.30;86.60;;;;;;5023287;28;20025;-62
2022/09/04 00:21:15;;;;;;;6.60;2.97;;;21.30;86.70;;;;;;5024323;28;20016;-63
2022/09/04 00:23:53;;;;;;;5.22;2.92;;;21.30;86.70;;;;;;5023690;28;20061;-63
2022/09/04 00:26:30;;;;;;;4.68;2.88;;;21.30;86.90;;;;;;5023234;28;20017;-63
2022/09/04 00:28:59;;;;;;;4.95;3.10;;;21.30;87.00;;;;;;5017663;28;20087;-63
2022/09/04 00:31:38;;;;;;;5.90;2.90;;;21.20;87.00;;;;;;5021673;28;20033;-62
2022/09/04 00:34:09;;;;;;;5.78;3.33;;;21.20;87.10;;;;;;5038665;28;20474;-62
2022/09/04 00:36:37;;;;;;;4.32;3.08;;;21.20;87.20;;;;;;5042030;28;20056;-62
2022/09/04 00:39:09;;;;;;;4.07;2.85;;;21.20;87.00;;;;;;5040008;28;20021;-62
2022/09/04 00:41:58;;;;;;;3.83;2.97;;;21.20;87.00;;;;;;5022969;28;20032;-62
2022/09/04 00:44:46;;;;;;;5.75;3.00;;;21.10;87.20;;;;;;5034395;28;20557;-63
2022/09/04 00:47:44;;;;;;;4.90;3.35;;;21.10;87.30;;;;;;5039059;28;20648;-65
2022/09/04 00:50:17;;;;;;;4.25;2.70;;;21.10;87.20;;;;;;5036199;28;20037;-64
2022/09/04 00:53:02;;;;;;;3.33;3.00;;;21.00;87.30;;;;;;5022538;28;20033;-63
2022/09/04 00:55:37;;;;;;;4.03;3.58;;;21.10;87.50;;;;;;5037193;28;20029;-62
2022/09/04 00:58:22;;;;;;;3.22;2.92;;;21.00;87.30;;;;;;5022736;28;20025;-61
2022/09/04 01:00:48;;;;;;;3.13;2.83;;;21.00;87.30;;;;;;5039539;28;20029;-63
2022/09/04 01:03:32;;;;;;;4.05;2.80;;;21.00;87.20;;;;;;5036674;28;20033;-62
2022/09/04 01:06:20;;;;;;;4.78;3.00;;;20.90;87.30;;;;;;5037406;28;20059;-62
2022/09/04 01:09:09;;;;;;;5.90;3.20;;;21.00;87.40;;;;;;5023171;28;20021;-62
2022/09/04 01:11:50;;;;;;;6.10;3.13;;;21.00;87.50;;;;;;5036419;28;20267;-63
2022/09/04 01:14:33;;;;;;;3.90;3.17;;;20.90;87.60;;;;;;5040518;28;20041;-63
2022/09/04 01:17:18;;;;;;;3.97;3.28;;;20.90;87.70;;;;;;5041159;28;20021;-63
2022/09/04 01:20:11;;;;;;;3.45;3.08;;;20.90;87.60;;;;;;5041351;28;20033;-62
2022/09/04 01:22:54;;;;;;;4.38;2.90;;;20.90;87.70;;;;;;5042828;28;20496;-63
2022/09/04 01:25:30;;;;;;;5.13;3.15;;;20.80;87.80;;;;;;5042042;28;20029;-62
2022/09/04 01:28:06;;;;;;;4.82;3.10;;;20.80;87.80;;;;;;5042859;28;20029;-62
2022/09/04 01:30:50;;;;;;;;;;;20.80;87.70;;;;;;5024339;28;20051;-64
2022/09/04 01:33:23;;;;;;;4.90;3.15;;;20.80;87.70;;;;;;5041661;28;19920;-63
2022/09/04 01:36:00;;;;;;;5.88;3.42;;;20.80;87.80;;;;;;5039826;28;20044;-62
2022/09/04 01:38:49;;;;;;;3.97;3.58;;;20.70;87.90;;;;;;5021756;28;20439;-63
2022/09/04 01:41:41;;;;;;;7.45;3.50;;;20.70;88.10;;;;;;5042609;28;20043;-63
2022/09/04 01:44:07;;;;;;;5.57;3.45;;;20.60;88.20;;;;;;5041953;28;20044;-61
2022/09/04 01:46:49;;;;;;;5.95;3.20;;;20.60;88.10;;;;;;5022690;28;20803;-63
2022/09/04 01:49:33;;;;;;;4.07;3.17;;;20.60;88.10;;;;;;5041278;28;20052;-63
2022/09/04 01:52:18;;;;;;;3.53;2.88;;;20.70;88.10;;;;;;5039812;28;20608;-62
2022/09/04 01:55:02;;;;;;;4.10;2.95;;;20.70;88.10;;;;;;5040912;28;20036;-62
2022/09/04 01:57:38;;;;;;;5.82;3.25;;;20.60;88.20;;;;;;5023442;28;20032;-63
2022/09/04 02:00:03;;;;;;;5.35;3.45;;;20.60;88.20;;;;;;5022978;28;20440;-62
2022/09/04 02:02:33;;;;;;;3.40;3.10;;;20.60;88.30;;;;;;5041774;28;20063;-63
2022/09/04 02:05:01;;;;;;;4.72;3.50;;;20.60;88.40;;;;;;5039588;28;20045;-62
2022/09/04 02:07:39;;;;;;;4.72;3.00;;;20.50;88.30;;;;;;5042503;28;20431;-62
2022/09/04 02:10:32;;;;;;;6.50;3.50;;;20.50;88.30;;;;;;5041830;28;20033;-61
2022/09/04 02:13:12;;;;;;;4.68;3.05;;;20.50;88.40;;;;;;5041722;28;20511;-62
2022/09/04 02:15:48;;;;;;;3.95;3.47;;;20.50;88.30;;;;;;5027192;28;20029;-62
2022/09/04 02:18:50;;;;;;;7.65;3.70;;;20.50;88.40;;;;;;5036404;28;20063;-63
2022/09/04 02:21:27;;;;;;;3.50;3.08;;;20.50;88.50;;;;;;5041675;28;20021;-63
2022/09/04 02:24:11;;;;;;;6.20;3.17;;;20.40;88.70;;;;;;5041154;28;20025;-64
2022/09/04 02:26:51;;;;;;;4.47;3.15;;;20.40;88.80;;;;;;5039868;28;20376;-63
2022/09/04 02:29:35;;;;;;;7.43;3.45;;;20.40;88.90;;;;;;5037933;28;20021;-63
2022/09/04 02:32:36;;;;;;;4.00;3.15;;;20.40;88.80;;;;;;5037469;28;20040;-63
2022/09/04 02:35:15;;;;;;;4.72;3.53;;;20.40;88.90;;;;;;5029986;28;20546;-62
2022/09/04 02:37:50;;;;;;;4.22;3.83;;;20.40;88.90;;;;;;5040442;28;20032;-61
2022/09/04 02:40:38;;;;;;;5.93;3.67;;;20.30;88.90;;;;;;5041741;28;20025;-61
2022/09/04 02:43:18;;;;;;;4.38;3.53;;;20.30;88.90;;;;;;5022711;28;20033;-63
2022/09/04 02:45:44;;;;;;;9.55;4.38;;;20.30;89.00;;;;;;5039655;28;20064;-61
2022/09/04 02:48:36;;;;;;;5.43;3.42;;;20.30;89.10;;;;;;5041317;28;20491;-62
2022/09/04 02:51:33;;;;;;;4.53;3.67;;;20.30;88.90;;;;;;5037051;28;20033;-61
2022/09/04 02:54:02;;;;;;;3.63;3.03;;;20.30;88.90;;;;;;5040277;28;20104;-63
2022/09/04 02:56:50;;;;;;;4.20;2.90;;;20.30;89.00;;;;;;5039451;28;20021;-62
2022/09/04 02:59:27;;;;;;;5.10;3.47;;;20.30;88.90;;;;;;5041072;28;20051;-63
2022/09/04 03:02:04;;;;;;;4.75;3.33;;;20.20;89.00;;;;;;5040785;28;20064;-62
2022/09/04 03:04:49;;;;;;;4.68;3.50;;;20.20;89.00;;;;;;5024163;28;20435;-62
2022/09/04 03:07:20;;;;;;;4.55;3.70;;;20.20;89.10;;;;;;5037631;28;20317;-63
2022/09/04 03:10:10;;;;;;;3.83;3.20;;;20.20;89.20;;;;;;5037129;28;20075;-63
2022/09/04 03:12:56;;;;;;;4.03;3.63;;;20.10;89.30;;;;;;5036826;28;20774;-62
2022/09/04 03:15:26;;;;;;;4.90;3.40;;;20.10;89.20;;;;;;5039105;28;20036;-62
2022/09/04 03:18:16;;;;;;;4.35;3.50;;;20.10;89.20;;;;;;5023729;28;20029;-62
2022/09/04 03:20:46;;;;;;;5.05;3.60;;;20.10;89.30;;;;;;5040471;28;20029;-62
2022/09/04 03:23:20;;;;;;;6.68;3.80;;;20.10;89.30;;;;;;5042154;28;20036;-62
2022/09/04 03:25:55;;;;;;;4.72;3.72;;;20.10;89.50;;;;;;5023587;28;20446;-63
2022/09/04 03:28:30;;;;;;;9.77;4.10;;;20.10;89.50;;;;;;5038590;28;20144;-62
2022/09/04 03:30:55;;;;;;;5.93;3.30;;;20.10;89.60;;;;;;5037783;28;20439;-63
2022/09/04 03:33:27;;;;;;;4.97;3.38;;;20.00;89.60;;;;;;5021419;28;20045;-63
2022/09/04 03:36:00;;;;;;;6.03;3.30;;;20.10;89.60;;;;;;5024137;28;20025;-62
2022/09/04 03:39:02;;;;;;;3.22;2.90;;;20.10;89.50;;;;;;5038723;28;20033;-62
2022/09/04 03:41:36;;;;;;;3.53;3.22;;;20.10;89.50;;;;;;5037756;28;20444;-63
2022/09/04 03:44:23;;;;;;;3.28;2.97;;;20.00;89.40;;;;;;5022477;28;20053;-63
2022/09/04 03:46:58;;;;;;;7.47;3.20;;;20.00;89.50;;;;;;5039452;28;20041;-62
2022/09/04 03:49:58;;;;;;;3.53;3.20;;;20.00;89.50;;;;;;5038282;28;21376;-63
2022/09/04 03:52:31;;;;;;;4.45;3.53;;;20.00;89.60;;;;;;5038674;28;20041;-62
2022/09/04 03:55:24;;;;;;;5.05;3.28;;;19.90;89.60;;;;;;5036512;28;20040;-63
2022/09/04 03:58:09;;;;;;;4.28;2.85;;;19.90;89.60;;;;;;5020740;28;20022;-63
2022/09/04 04:01:17;;;;;;;3.67;2.97;;;19.90;89.60;;;;;;5034919;28;20061;-61
2022/09/04 04:04:14;;;;;;;6.20;2.67;;;19.90;89.70;;;;;;5038847;28;20040;-61
2022/09/04 04:06:43;;;;;;;4.97;2.95;;;19.90;89.70;;;;;;5023126;28;20108;-62
2022/09/04 04:09:14;;;;;;;3.45;2.97;;;19.90;89.90;;;;;;5039207;28;20029;-62
2022/09/04 04:11:43;;;;;;;4.05;2.58;;;19.80;90.00;;;;;;5038384;28;20037;-64
2022/09/04 04:14:37;;;;;;;3.92;2.90;;;19.80;90.00;;;;;;5039163;28;20013;-62
2022/09/04 04:17:33;;;;;;;4.68;2.75;;;19.80;90.00;;;;;;5036711;28;20058;-62
2022/09/04 04:20:13;;;;;;;4.22;2.65;;;19.80;90.00;;;;;;5037287;28;20017;-63
2022/09/04 04:22:57;;;;;;;3.83;2.85;;;19.80;90.00;;;;;;5023548;28;20033;-62
2022/09/04 04:25:33;;;;;;;3.70;2.40;;;19.80;90.00;;;;;;5038098;28;20018;-61
2022/09/04 04:28:25;;;;;;;3.55;2.50;;;19.80;90.00;;;;;;5033378;28;20030;-63
2022/09/04 04:30:51;;;;;;;4.57;2.58;;;19.80;90.00;;;;;;5034395;28;21363;-62
2022/09/04 04:33:23;;;;;;;4.93;2.78;;;19.70;90.00;;;;;;5040381;28;20025;-61
2022/09/04 04:36:26;;;;;;;3.30;2.97;;;19.80;90.00;;;;;;5006533;28;20071;-62
2022/09/04 04:39:17;;;;;;;6.13;2.70;;;19.80;90.00;;;;;;5039852;28;20377;-63
2022/09/04 04:42:03;;;;;;;3.55;2.60;;;19.80;90.10;;;;;;5037493;28;20029;-62
2022/09/04 04:47:50;;;;;;;3.10;2.80;;;19.90;90.10;;;;;;5040176;28;20383;-61
2022/09/04 04:50:21;;;;;;;3.03;2.72;;;19.80;90.10;;;;;;5041851;28;20021;-63
2022/09/04 04:53:02;;;;;;;3.05;2.75;;;19.70;90.10;;;;;;5043319;28;20032;-62
2022/09/04 04:55:48;;;;;;;4.00;2.55;;;19.70;90.10;;;;;;5042929;28;20021;-62
2022/09/04 04:58:36;;;;;;;3.45;2.63;;;19.60;90.10;;;;;;5042857;28;20030;-63
2022/09/04 05:01:22;;;;;;;3.50;2.58;;;19.70;90.20;;;;;;5041403;28;20025;-63
2022/09/04 05:03:53;;;;;;;4.55;2.47;;;19.70;90.20;;;;;;5043578;28;20427;-62
2022/09/04 05:06:35;;;;;;;3.83;2.40;;;19.60;90.20;;;;;;5041101;28;20026;-62
2022/09/04 05:09:09;;;;;;;3.00;2.60;;;19.60;90.20;;;;;;5039622;28;20044;-63
2022/09/04 05:11:57;;;;;;;2.83;2.57;;;19.60;90.20;;;;;;5042852;28;20048;-62
2022/09/04 05:15:05;;;;;;;3.35;2.22;;;19.60;90.20;;;;;;5040926;28;20112;-62
2022/09/04 05:17:39;;;;;;;5.00;2.80;;;19.60;90.30;;;;;;5028842;28;20622;-63
2022/09/04 05:20:36;;;;;;;3.08;2.47;;;19.60;90.30;;;;;;5027954;28;20546;-62
2022/09/04 05:23:14;;;;;;;4.25;2.72;;;19.60;90.30;;;;;;5043643;28;20036;-62
2022/09/04 05:25:58;;;;;;;3.13;2.83;;;19.60;90.30;;;;;;5041437;28;20033;-62
2022/09/04 05:28:24;;;;;;;5.22;2.58;;;19.60;90.30;;;;;;5043511;28;20040;-62
2022/09/04 05:31:11;;;;;;;6.15;2.75;;;19.60;90.30;;;;;;5041838;28;20056;-62
2022/09/04 05:33:51;;;;;;;3.22;2.85;;;19.60;90.30;;;;;;5040279;28;20104;-62
2022/09/04 05:36:36;;;;;;;4.07;2.67;;;19.60;90.40;;;;;;5043523;28;20033;-62
2022/09/04 05:39:29;;;;;;;3.88;2.60;;;19.60;90.30;;;;;;5041570;28;20472;-63
2022/09/04 05:42:03;;;;;;;2.65;2.40;;;19.60;90.40;;;;;;5024461;28;20052;-62
2022/09/04 05:44:48;;;;;;;3.10;2.73;;;19.60;90.30;;;;;;5043627;28;20045;-63
2022/09/04 05:47:26;;;;;;;4.80;2.88;;;19.60;90.40;;;;;;5043201;28;20029;-63
2022/09/04 05:50:01;;;;;;;3.67;2.70;;;19.60;90.40;;;;;;5042261;28;20025;-61
2022/09/04 05:52:36;;;;;;;3.60;2.75;;;19.60;90.60;;;;;;5040876;28;20086;-62
2022/09/04 05:55:12;;;;;;;8.48;2.65;;;19.60;90.40;;;;;;5041177;28;20041;-61
2022/09/04 05:57:46;;;;;;;2.78;2.40;;;19.60;90.40;;;;;;5039771;28;20132;-62
2022/09/04 06:00:18;;;;;;;3.63;2.42;;;19.60;90.50;;;;;;5041616;28;20025;-63
2022/09/04 06:03:09;;;;;;;3.53;2.55;;;19.60;90.50;;;;;;5041699;28;20116;-62
2022/09/04 06:05:38;;;;;;;3.15;2.67;;;19.60;90.50;;;;;;5043874;28;20032;-61
2022/09/04 06:08:44;;;;;;;6.43;2.80;;;19.60;90.50;;;;;;5042360;28;20030;-62
2022/09/04 06:11:33;;;;;;;5.22;2.67;;;19.50;90.40;;;;;;5040066;28;20025;-62
2022/09/04 06:14:13;;;;;;;3.63;2.60;;;19.60;90.40;;;;;;5041858;28;20028;-63
2022/09/04 06:16:57;;;;;;;5.53;2.40;;;19.60;90.40;;;;;;5042477;28;20057;-62
2022/09/04 06:19:44;;;;;;;2.88;2.58;;;19.60;90.40;;;;;;5040993;28;20132;-62
2022/09/04 06:22:23;;;;;;;2.80;2.50;;;19.60;90.50;;;;;;5025262;28;20079;-62
2022/09/04 06:25:26;;;;;;;4.05;2.45;;;19.60;90.50;;;;;;5022340;28;20383;-65
2022/09/04 06:28:03;;;;;;;10.30;3.38;;;19.60;90.50;;;;;;5042310;28;20771;-62
2022/09/04 06:31:24;;;;;;;4.55;2.80;;;19.60;90.50;;;;;;5039867;28;20048;-63
2022/09/04 06:34:18;;;;;;;8.48;2.78;;;19.60;90.60;;;;;;5029282;28;20111;-62
2022/09/04 06:37:05;;;;;;;7.35;2.97;;;19.60;90.70;;;;;;5040002;28;20048;-63
2022/09/04 06:39:37;;;;;;;6.65;2.88;;;19.60;90.70;;;;;;5042018;28;20036;-62
2022/09/04 06:42:07;;;;;;;4.22;2.92;;;19.60;90.70;;;;;;5040849;28;20061;-63
2022/09/04 06:45:08;;;;;;;4.55;3.08;;;19.70;90.70;;;;;;5025467;28;20041;-63
2022/09/04 06:47:59;;;;;;;5.32;3.05;;;19.60;90.70;;;;;;5042279;28;20021;-62
2022/09/04 06:50:37;;;;;;;10.55;3.30;;;19.60;90.60;;;;;;5040378;28;20124;-61
2022/09/04 06:53:31;;;;;;;17.95;4.22;;;19.60;90.70;;;;;;5041145;28;20408;-62
2022/09/04 06:56:06;;;;;;;19.58;4.10;;;19.60;90.70;;;;;;5035775;28;20563;-62
2022/09/04 06:58:55;;;;;;;26.33;4.38;;;19.60;90.80;;;;;;5023824;28;20384;-63
2022/09/04 07:01:39;;;;;;;17.50;4.40;;;19.70;91.10;;;;;;5029597;28;20581;-63
2022/09/04 07:04:43;;;;;;;16.25;3.85;;;19.70;91.10;;;;;;5041484;28;20029;-63
2022/09/04 07:08:03;;;;;;;22.60;4.63;;;19.70;91.10;;;;;;5036049;28;20303;-62
2022/09/04 07:10:47;;;;;;;21.70;4.68;;;19.70;91.10;;;;;;5000773;28;20426;-63
2022/09/04 07:13:20;;;;;;;22.20;4.70;;;19.70;91.20;;;;;;5037800;28;20059;-63
2022/09/04 07:15:47;;;;;;;24.00;5.25;;;19.70;91.20;;;;;;5041774;28;20021;-61
2022/09/04 07:18:36;;;;;;;16.48;4.75;;;19.70;91.30;;;;;;5039725;28;20492;-62
2022/09/04 07:21:17;;;;;;;21.02;4.95;;;19.80;91.30;;;;;;5039076;28;20116;-63
2022/09/04 07:24:04;;;;;;;27.08;5.20;;;19.80;91.30;;;;;;5037912;28;20029;-62
2022/09/04 07:26:38;;;;;;;22.25;4.75;;;19.80;91.40;;;;;;5040334;28;20024;-62
2022/09/04 07:29:21;;;;;;;24.40;4.50;;;19.80;91.40;;;;;;5037731;28;20032;-61
2022/09/04 07:31:59;;;;;;;21.90;4.47;;;19.80;91.50;;;;;;5039452;28;20138;-62
2022/09/04 07:34:46;;;;;;;16.88;4.07;;;19.80;91.50;;;;;;5040926;28;20021;-65
2022/09/04 07:37:38;;;;;;;24.45;4.18;;;19.80;91.60;;;;;;5039211;28;20022;-62
2022/09/04 07:40:19;;;;;;;17.45;3.92;;;19.80;91.60;;;;;;5039364;28;20058;-62
2022/09/04 07:42:52;;;;;;;10.05;3.70;;;19.80;91.70;;;;;;5022850;28;20041;-61
2022/09/04 07:45:32;;;;;;;11.48;3.83;;;19.90;91.50;;;;;;5039812;28;20041;-63
2022/09/04 07:48:04;;;;;;;20.60;3.55;;;19.90;91.60;;;;;;5025955;28;20098;-62
2022/09/04 07:50:46;;;;;;;17.38;3.67;;;19.90;91.80;;;;;;5039391;28;20151;-62
2022/09/04 07:53:59;;;;;;;7.90;3.30;;;19.90;91.80;;;;;;5026196;28;20041;-64
2022/09/04 07:56:28;;;;;;;13.52;3.35;;;19.90;91.90;;;;;;4997039;28;20508;-64
2022/09/04 07:59:13;;;;;;;16.45;3.53;;;19.90;91.90;;;;;;5042366;28;20029;-64
2022/09/04 08:01:55;;;;;;;10.75;3.35;;;19.90;91.70;;;;;;5035198;28;20108;-63
2022/09/04 08:04:54;;;;;;;14.80;3.60;;;19.90;91.90;;;;;;5031849;28;20025;-63
2022/09/04 08:07:57;;;;;;;10.95;3.25;;;19.90;92.00;;;;;;5029455;28;20045;-64
2022/09/04 08:10:30;;;;;;;12.85;3.17;;;19.90;92.00;;;;;;5010607;28;20060;-62
2022/09/04 08:13:17;;;;;;;12.70;3.60;;;19.90;92.10;;;;;;5030827;28;20480;-63
2022/09/04 08:15:56;;;;;;;13.55;3.03;;;19.90;92.50;;;;;;5029327;28;20481;-63
2022/09/04 08:18:52;;;;;;;14.73;3.08;;;20.00;92.90;;;;;;5031319;28;20036;-62
2022/09/04 08:21:24;;;;;;;;;;;20.00;92.70;;;;;;5034135;28;20032;-62
2022/09/04 08:24:11;;;;;;;23.13;3.88;;;20.00;92.80;;;;;;5019605;28;19919;-63
2022/09/04 08:27:02;;;;;;;10.10;3.03;;;20.00;93.70;;;;;;5029885;28;20419;-63
2022/09/04 08:29:46;;;;;;;29.38;3.92;;;20.00;93.80;;;;;;5035951;28;20495;-63
2022/09/04 08:32:24;;;;;;;22.60;3.97;;;20.10;94.30;;;;;;5033181;28;20493;-62
2022/09/04 08:35:14;;;;;;;25.05;4.15;;;20.10;94.40;;;;;;5036556;28;20055;-63
2022/09/04 08:37:52;;;;;;;32.80;4.47;;;20.10;94.50;;;;;;5037075;28;20037;-62
2022/09/04 08:40:56;;;;;;;33.90;4.50;;;20.10;94.60;;;;;;5035548;28;20364;-62
2022/09/04 08:43:43;;;;;;;36.33;5.05;;;20.10;95.00;;;;;;5037959;28;20052;-63
2022/09/04 08:46:38;;;;;;;27.40;4.70;;;20.10;95.20;;;;;;5034399;28;20041;-63
2022/09/04 08:49:15;;;;;;;41.65;4.93;;;20.20;95.40;;;;;;5034311;28;20048;-64
2022/09/04 08:51:44;;;;;;;33.40;4.63;;;20.30;95.50;;;;;;5034892;28;20167;-63
2022/09/04 08:54:19;;;;;;;50.25;6.00;;;20.20;95.60;;;;;;5034639;28;20025;-64
2022/09/04 08:56:58;;;;;;;47.58;6.18;;;20.30;95.50;;;;;;5039007;28;20083;-62
2022/09/04 08:59:50;;;;;;;58.47;7.53;;;20.30;95.80;;;;;;5018912;28;20033;-64
2022/09/04 09:02:57;;;;;;;43.22;6.32;;;20.40;95.90;;;;;;5033926;28;20468;-62
2022/09/04 09:05:37;;;;;;;;;;;20.40;95.80;;;;;;5020753;28;20053;-64
2022/09/04 09:08:40;;;;;;;34.90;4.90;;;20.40;95.60;;;;;;5034487;28;20007;-62
2022/09/04 09:11:30;;;;;;;63.17;7.38;;;20.40;95.40;;;;;;5034961;28;20459;-62
2022/09/04 09:14:10;;;;;;;70.47;7.82;;;20.40;95.50;;;;;;5035045;28;20033;-63
2022/09/04 09:16:42;;;;;;;80.07;7.63;;;20.50;95.30;;;;;;5018324;28;20585;-63
2022/09/04 09:19:17;;;;;;;53.47;6.90;;;20.50;95.50;;;;;;5036536;28;20489;-62
2022/09/04 09:21:44;;;;;;;46.30;7.05;;;20.50;95.40;;;;;;5033291;28;20425;-62
2022/09/04 09:24:50;;;;;;;57.22;6.50;;;20.50;95.60;;;;;;5017322;28;20083;-62
2022/09/04 09:27:47;;;;;;;49.28;7.13;;;20.50;95.60;;;;;;5033566;28;20210;-62
2022/09/04 09:30:21;;;;;;;44.60;6.82;;;20.60;95.60;;;;;;5021948;28;20397;-63
2022/09/04 09:33:11;;;;;;;49.67;7.43;;;20.60;95.20;;;;;;5011320;28;20046;-63
2022/09/04 09:36:14;;;;;;;67.60;8.18;;;20.70;95.60;;;;;;5029229;28;20021;-62
2022/09/04 09:39:06;;;;;;;46.33;7.60;;;20.70;95.20;;;;;;5033666;28;20033;-63
2022/09/04 09:42:03;;;;;;;41.05;6.82;;;20.80;95.10;;;;;;5032664;28;20484;-63
2022/09/04 09:44:34;;;;;;;46.85;7.43;;;20.90;95.00;;;;;;5034295;28;20524;-62
2022/09/04 09:47:34;;;;;;;52.95;7.15;;;20.90;95.10;;;;;;5030553;28;20087;-63
2022/09/04 09:50:03;;;;;;;48.03;6.80;;;20.90;95.00;;;;;;5026959;28;20542;-63
2022/09/04 09:52:38;;;;;;;86.82;10.00;;;20.90;94.70;;;;;;5035888;28;20025;-63
2022/09/04 09:55:48;;;;;;;59.53;8.25;;;21.00;94.80;;;;;;5034640;28;20431;-62
2022/09/04 09:58:28;;;;;;;62.83;7.45;;;21.00;94.80;;;;;;4991716;28;20239;-63
2022/09/04 10:01:32;;;;;;;48.67;7.20;;;21.00;94.80;;;;;;5027820;28;20086;-63
2022/09/04 10:04:21;;;;;;;71.03;8.55;;;21.00;94.80;;;;;;5018105;28;20616;-63
2022/09/04 10:07:20;;;;;;;58.40;7.90;;;21.10;95.00;;;;;;5014025;28;20044;-65
2022/09/04 10:09:57;;;;;;;56.58;8.43;;;21.10;94.60;;;;;;5033386;28;20045;-63
2022/09/04 10:12:41;;;;;;;58.75;8.30;;;21.10;94.90;;;;;;5031867;28;20116;-63
2022/09/04 10:15:45;;;;;;;47.50;7.05;;;21.20;94.80;;;;;;5031342;28;20033;-63
2022/09/04 10:18:32;;;;;;;58.53;7.45;;;21.20;94.90;;;;;;5032403;28;20025;-63
2022/09/04 10:21:12;;;;;;;49.22;7.32;;;21.30;94.80;;;;;;5030471;28;20556;-63
2022/09/04 10:23:57;;;;;;;51.03;8.07;;;21.30;94.50;;;;;;5028146;28;20114;-64
2022/09/04 10:26:34;;;;;;;51.30;8.07;;;21.30;94.50;;;;;;5032295;28;20149;-62
2022/09/04 10:29:28;;;;;;;49.83;7.63;;;21.40;94.40;;;;;;5035359;28;20044;-64
2022/09/04 10:32:10;;;;;;;59.80;8.60;;;21.40;94.30;;;;;;5028148;28;22340;-64
2022/09/04 10:35:11;;;;;;;96.85;10.50;;;21.50;94.10;;;;;;5014850;28;20496;-64
2022/09/04 10:37:58;;;;;;;72.60;10.15;;;21.50;94.20;;;;;;4996105;28;20056;-64
2022/09/04 10:40:51;;;;;;;74.28;9.63;;;21.50;94.10;;;;;;5015219;28;20048;-62
2022/09/04 10:43:51;;;;;;;71.00;9.55;;;21.60;93.90;;;;;;5032643;28;20080;-64
2022/09/04 10:46:31;;;;;;;78.80;11.63;;;21.70;93.70;;;;;;5015553;28;20509;-63
2022/09/04 10:49:32;;;;;;;71.70;9.57;;;21.70;93.40;;;;;;5030007;28;20033;-63
2022/09/04 10:52:16;;;;;;;76.32;9.75;;;21.80;93.10;;;;;;5032062;28;20381;-64
2022/09/04 10:55:13;;;;;;;107.50;11.13;;;21.80;92.90;;;;;;5032342;28;20034;-64
2022/09/04 10:57:53;;;;;;;92.72;10.45;;;21.90;92.70;;;;;;5028896;28;20021;-64
2022/09/04 11:00:20;;;;;;;112.65;13.48;;;22.00;92.70;;;;;;5029242;28;20478;-63
2022/09/04 11:03:15;;;;;;;72.60;9.63;;;21.90;92.60;;;;;;5014076;28;20033;-64
2022/09/04 11:06:22;;;;;;;130.02;14.23;;;22.00;92.50;;;;;;5026979;28;20017;-64
2022/09/04 11:09:41;;;;;;;152.68;15.80;;;22.10;92.30;;;;;;5020890;28;20025;-64
2022/09/04 11:12:25;;;;;;;83.95;9.98;;;22.10;92.10;;;;;;4988723;28;20569;-63
2022/09/04 11:15:12;;;;;;;78.25;11.10;;;22.20;91.60;;;;;;5034699;28;20059;-64
2022/09/04 11:17:49;;;;;;;131.73;14.55;;;22.30;91.30;;;;;;5031806;28;20107;-63
2022/09/04 11:20:24;;;;;;;105.30;13.68;;;22.30;91.10;;;;;;5029173;28;20026;-63
2022/09/04 11:23:19;;;;;;;143.38;16.45;;;22.40;91.00;;;;;;5027508;28;20569;-64
2022/09/04 11:25:54;;;;;;;119.55;14.63;;;22.50;90.60;;;;;;5030722;28;20132;-63
2022/09/04 11:28:38;;;;;;;119.35;15.02;;;22.60;90.40;;;;;;5031858;28;20094;-63
2022/09/04 11:31:19;;;;;;;103.85;12.02;;;22.70;90.00;;;;;;5025790;28;20405;-64
2022/09/04 11:34:16;;;;;;;104.95;13.73;;;22.80;89.00;;;;;;5027627;28;20021;-64
2022/09/04 11:36:55;;;;;;;;;;;22.80;88.70;;;;;;5020563;28;20082;-64
2022/09/04 11:39:39;;;;;;;137.00;11.73;;;22.90;88.10;;;;;;5026062;28;20026;-63
2022/09/04 11:42:24;;;;;;;124.13;13.05;;;23.00;86.80;;;;;;5021479;28;20041;-64
2022/09/04 11:45:20;;;;;;;110.40;12.80;;;23.00;86.40;;;;;;5011973;28;20072;-64
2022/09/04 11:48:04;;;;;;;117.38;13.57;;;23.10;85.80;;;;;;5025536;28;20039;-64
2022/09/04 11:51:08;;;;;;;118.70;13.52;;;23.10;85.80;;;;;;5030908;28;20025;-64
2022/09/04 11:53:48;;;;;;;108.55;13.65;;;23.20;85.30;;;;;;5033975;28;20032;-63
2022/09/04 11:56:51;;;;;;;113.03;12.27;;;23.30;84.70;;;;;;5019390;28;20033;-65
2022/09/04 11:59:44;;;;;;;127.60;15.38;;;23.40;84.50;;;;;;5025675;28;20528;-63
2022/09/04 12:02:29;;;;;;;117.07;14.27;;;23.50;84.40;;;;;;5025035;28;20041;-64
2022/09/04 12:05:38;;;;;;;146.95;15.52;;;23.70;83.20;;;;;;5015707;28;20026;-65
2022/09/04 12:08:11;;;;;;;108.10;12.98;;;23.70;82.60;;;;;;5024767;28;20051;-64
2022/09/04 12:10:54;;;;;;;105.78;11.73;;;23.80;81.30;;;;;;5022252;28;20032;-64
2022/09/04 12:13:56;;;;;;;83.70;10.52;;;23.80;81.00;;;;;;5028030;28;20133;-64
2022/09/04 12:16:25;;;;;;;91.28;11.52;;;23.90;80.40;;;;;;5024866;28;20048;-64
2022/09/04 12:19:10;;;;;;;96.28;10.60;;;24.00;79.40;;;;;;5026115;28;20033;-65
2022/09/04 12:21:43;;;;;;;75.85;9.10;;;24.00;78.80;;;;;;5023480;28;20420;-63
2022/09/04 12:24:12;;;;;;;49.85;7.03;;;24.10;77.90;;;;;;5025350;28;20108;-65
2022/09/04 12:27:00;;;;;;;85.47;9.60;;;24.10;77.00;;;;;;5007188;28;20061;-64
2022/09/04 12:29:51;;;;;;;85.05;9.57;;;24.10;77.40;;;;;;5022148;28;20125;-63
2022/09/04 12:32:38;;;;;;;66.68;10.63;;;24.20;77.40;;;;;;5020587;28;20041;-63
2022/09/04 12:35:35;;;;;;;71.72;9.52;;;24.30;77.10;;;;;;5004392;28;20209;-63
2022/09/04 12:38:36;;;;;;;103.45;11.82;;;24.30;77.10;;;;;;5011532;28;20032;-63
2022/09/04 12:41:26;;;;;;;74.00;8.93;;;24.40;76.80;;;;;;5025700;28;20028;-62
2022/09/04 12:44:32;;;;;;;105.75;10.75;;;24.50;76.40;;;;;;5027022;28;20044;-64
2022/09/04 12:46:59;;;;;;;103.53;10.40;;;24.50;75.90;;;;;;5028361;28;20401;-63
2022/09/04 12:49:43;;;;;;;78.68;10.15;;;24.60;75.30;;;;;;5025970;28;20757;-64
2022/09/04 12:52:33;;;;;;;64.97;9.07;;;24.60;75.10;;;;;;5025807;28;20105;-63
2022/09/04 12:55:05;;;;;;;118.72;13.98;;;24.70;74.90;;;;;;5014286;28;20022;-65
2022/09/04 12:58:01;;;;;;;100.68;12.82;;;24.80;75.50;;;;;;5026281;28;20025;-64
2022/09/04 13:00:32;;;;;;;76.20;10.73;;;24.90;75.20;;;;;;5021449;28;20026;-65
2022/09/04 13:03:26;;;;;;;60.63;8.30;;;24.90;74.60;;;;;;5011731;28;20033;-63
2022/09/04 13:06:18;;;;;;;79.88;11.77;;;25.00;73.50;;;;;;5021070;28;21492;-63
2022/09/04 13:09:12;;;;;;;81.88;8.02;;;25.00;73.20;;;;;;5007316;28;20041;-64
2022/09/04 13:11:47;;;;;;;111.50;12.68;;;25.10;72.60;;;;;;5019928;28;20034;-63
2022/09/04 13:14:39;;;;;;;180.48;20.42;;;25.10;72.90;;;;;;5026790;28;20087;-63
2022/09/04 13:17:31;;;;;;;107.35;10.88;;;25.10;72.30;;;;;;5012848;28;20111;-64
2022/09/04 13:20:01;;;;;;;90.35;11.52;;;25.20;72.20;;;;;;5028215;28;20026;-64
2022/09/04 13:22:48;;;;;;;72.05;9.48;;;25.30;72.30;;;;;;5028583;28;20029;-66
2022/09/04 13:25:21;;;;;;;72.10;8.82;;;25.40;72.20;;;;;;5024927;28;20041;-64
2022/09/04 13:28:10;;;;;;;89.18;9.00;;;25.40;71.90;;;;;;5014447;28;20389;-65
2022/09/04 13:31:04;;;;;;;88.03;9.52;;;25.50;71.80;;;;;;5011894;28;20048;-65
2022/09/04 13:33:48;;;;;;;106.75;10.25;;;25.60;70.90;;;;;;5025199;28;20117;-64
2022/09/04 13:36:48;;;;;;;57.20;7.90;;;25.60;71.40;;;;;;5024815;28;20029;-65
2022/09/04 13:39:36;;;;;;;85.25;9.20;;;25.50;70.40;;;;;;5011260;28;20033;-65
2022/09/04 13:42:10;;;;;;;87.22;9.68;;;25.60;71.00;;;;;;5010650;28;20112;-64
2022/09/04 13:45:07;;;;;;;69.82;8.48;;;25.60;70.50;;;;;;5025804;28;20131;-65
2022/09/04 13:47:37;;;;;;;81.82;9.23;;;25.70;70.00;;;;;;5023481;28;20036;-64
2022/09/04 13:50:20;;;;;;;83.40;9.00;;;25.80;70.00;;;;;;5028138;28;20021;-65
2022/09/04 13:52:54;;;;;;;66.60;9.88;;;25.80;70.20;;;;;;5023037;28;20056;-65
2022/09/04 13:55:27;;;;;;;76.00;9.20;;;25.80;69.70;;;;;;5027996;28;20068;-65
2022/09/04 13:58:00;;;;;;;73.18;9.93;;;25.80;70.10;;;;;;5028092;28;20034;-64
2022/09/04 14:00:27;;;;;;;190.10;21.88;;;26.00;70.20;;;;;;5028568;28;20147;-64
2022/09/04 14:02:57;;;;;;;92.15;10.00;;;26.00;70.20;;;;;;5009761;28;21026;-65
2022/09/04 14:05:24;;;;;;;86.43;9.82;;;26.00;70.30;;;;;;5022351;28;20041;-66
2022/09/04 14:07:57;;;;;;;95.22;10.27;;;26.00;70.20;;;;;;5023162;28;20029;-65